sensor_id;sensor_type;location;lat;lon;timestamp;P1;durP1;ratioP1;P2;durP2;ratioP2
28796;SDS011;24974;54.444;18.560;2023-11-21T00:00:32;16.45;;;8.52;;
28796;SDS011;24974;54.444;18.560;2023-11-21T00:03:03;22.05;;;8.52;;
28796;SDS011;24974;54.444;18.560;2023-11-21T00:05:34;16.85;;;7.47;;
28796;SDS011;24974;54.444;18.560;2023-11-21T00:08:05;15.15;;;8.10;;
28796;SDS011;24974;54.444;18.560;2023-11-21T00:10:36;16.63;;;8.05;;
28796;SDS011;24974;54.444;18.560;2023-11-21T00:13:09;16.27;;;8.20;;
28796;SDS011;24974;54.444;18.560;2023-11-21T00:15:42;17.50;;;8.73;;
28796;SDS011;24974;54.444;18.560;2023-11-21T00:18:13;12.73;;;7.45;;
28796;SDS011;24974;54.444;18.560;2023-11-21T00:20:44;21.35;;;8.40;;
28796;SDS011;24974;54.444;18.560;2023-11-21T00:23:15;14.65;;;7.47;;
28796;SDS011;24974;54.444;18.560;2023-11-21T00:25:46;15.73;;;8.15;;
28796;SDS011;24974;54.444;18.560;2023-11-21T00:28:17;17.50;;;8.35;;
28796;SDS011;24974;54.444;18.560;2023-11-21T00:30:48;18.60;;;8.13;;
28796;SDS011;24974;54.444;18.560;2023-11-21T00:33:19;14.30;;;7.78;;
28796;SDS011;24974;54.444;18.560;2023-11-21T00:35:50;15.32;;;7.13;;
28796;SDS011;24974;54.444;18.560;2023-11-21T00:38:21;13.52;;;6.97;;
28796;SDS011;24974;54.444;18.560;2023-11-21T00:40:52;9.68;;;6.57;;
28796;SDS011;24974;54.444;18.560;2023-11-21T00:43:26;13.50;;;7.20;;
28796;SDS011;24974;54.444;18.560;2023-11-21T00:45:57;10.75;;;5.95;;
28796;SDS011;24974;54.444;18.560;2023-11-21T00:48:28;13.48;;;7.55;;
28796;SDS011;24974;54.444;18.560;2023-11-21T00:50:59;14.10;;;7.55;;
28796;SDS011;24974;54.444;18.560;2023-11-21T00:53:30;10.85;;;6.80;;
28796;SDS011;24974;54.444;18.560;2023-11-21T00:56:01;11.75;;;6.75;;
28796;SDS011;24974;54.444;18.560;2023-11-21T00:58:33;10.90;;;6.40;;
28796;SDS011;24974;54.444;18.560;2023-11-21T01:01:04;12.68;;;6.75;;
28796;SDS011;24974;54.444;18.560;2023-11-21T01:03:35;10.40;;;6.32;;
28796;SDS011;24974;54.444;18.560;2023-11-21T01:06:06;12.05;;;6.80;;
28796;SDS011;24974;54.444;18.560;2023-11-21T01:08:37;13.80;;;6.65;;
28796;SDS011;24974;54.444;18.560;2023-11-21T01:11:08;10.73;;;5.93;;
28796;SDS011;24974;54.444;18.560;2023-11-21T01:13:40;10.52;;;6.25;;
28796;SDS011;24974;54.444;18.560;2023-11-21T01:16:12;10.48;;;6.43;;
28796;SDS011;24974;54.444;18.560;2023-11-21T01:18:44;8.60;;;5.75;;
28796;SDS011;24974;54.444;18.560;2023-11-21T01:21:16;9.23;;;5.60;;
28796;SDS011;24974;54.444;18.560;2023-11-21T01:23:48;9.80;;;5.97;;
28796;SDS011;24974;54.444;18.560;2023-11-21T01:26:20;9.32;;;5.93;;
28796;SDS011;24974;54.444;18.560;2023-11-21T01:28:51;13.68;;;6.57;;
28796;SDS011;24974;54.444;18.560;2023-11-21T01:31:22;11.18;;;6.07;;
28796;SDS011;24974;54.444;18.560;2023-11-21T01:33:53;11.40;;;5.70;;
28796;SDS011;24974;54.444;18.560;2023-11-21T01:36:34;9.25;;;5.05;;
28796;SDS011;24974;54.444;18.560;2023-11-21T01:39:05;9.93;;;5.55;;
28796;SDS011;24974;54.444;18.560;2023-11-21T01:41:39;8.55;;;5.65;;
28796;SDS011;24974;54.444;18.560;2023-11-21T01:44:10;10.23;;;5.82;;
28796;SDS011;24974;54.444;18.560;2023-11-21T01:46:40;8.00;;;5.05;;
28796;SDS011;24974;54.444;18.560;2023-11-21T01:49:12;8.48;;;5.60;;
28796;SDS011;24974;54.444;18.560;2023-11-21T01:51:44;8.93;;;4.90;;
28796;SDS011;24974;54.444;18.560;2023-11-21T01:54:18;9.52;;;5.35;;
28796;SDS011;24974;54.444;18.560;2023-11-21T01:56:51;10.15;;;5.38;;
28796;SDS011;24974;54.444;18.560;2023-11-21T01:59:22;8.50;;;5.03;;
28796;SDS011;24974;54.444;18.560;2023-11-21T02:01:54;10.48;;;4.85;;
28796;SDS011;24974;54.444;18.560;2023-11-21T02:04:26;11.73;;;5.97;;
28796;SDS011;24974;54.444;18.560;2023-11-21T02:06:57;10.00;;;5.38;;
28796;SDS011;24974;54.444;18.560;2023-11-21T02:09:28;8.10;;;4.80;;
28796;SDS011;24974;54.444;18.560;2023-11-21T02:12:08;10.43;;;5.03;;
28796;SDS011;24974;54.444;18.560;2023-11-21T02:14:40;8.57;;;4.70;;
28796;SDS011;24974;54.444;18.560;2023-11-21T02:17:11;8.55;;;5.20;;
28796;SDS011;24974;54.444;18.560;2023-11-21T02:19:43;10.00;;;5.22;;
28796;SDS011;24974;54.444;18.560;2023-11-21T02:22:15;6.88;;;4.72;;
28796;SDS011;24974;54.444;18.560;2023-11-21T02:24:47;7.57;;;4.95;;
28796;SDS011;24974;54.444;18.560;2023-11-21T02:27:17;8.35;;;5.28;;
28796;SDS011;24974;54.444;18.560;2023-11-21T02:29:52;8.70;;;4.63;;
28796;SDS011;24974;54.444;18.560;2023-11-21T02:32:23;8.25;;;4.78;;
28796;SDS011;24974;54.444;18.560;2023-11-21T02:34:56;8.15;;;4.75;;
28796;SDS011;24974;54.444;18.560;2023-11-21T02:37:31;7.93;;;4.85;;
28796;SDS011;24974;54.444;18.560;2023-11-21T02:40:02;13.48;;;5.85;;
28796;SDS011;24974;54.444;18.560;2023-11-21T02:42:40;12.40;;;5.28;;
28796;SDS011;24974;54.444;18.560;2023-11-21T02:45:11;9.55;;;5.32;;
28796;SDS011;24974;54.444;18.560;2023-11-21T02:47:44;8.05;;;5.47;;
28796;SDS011;24974;54.444;18.560;2023-11-21T02:50:15;8.32;;;5.22;;
28796;SDS011;24974;54.444;18.560;2023-11-21T02:52:49;9.35;;;5.43;;
28796;SDS011;24974;54.444;18.560;2023-11-21T02:55:21;8.45;;;5.82;;
28796;SDS011;24974;54.444;18.560;2023-11-21T02:57:52;10.70;;;5.47;;
28796;SDS011;24974;54.444;18.560;2023-11-21T03:00:23;11.63;;;6.30;;
28796;SDS011;24974;54.444;18.560;2023-11-21T03:02:56;8.13;;;5.25;;
28796;SDS011;24974;54.444;18.560;2023-11-21T03:05:27;10.10;;;5.60;;
28796;SDS011;24974;54.444;18.560;2023-11-21T03:07:59;9.50;;;6.10;;
28796;SDS011;24974;54.444;18.560;2023-11-21T03:10:30;9.15;;;5.80;;
28796;SDS011;24974;54.444;18.560;2023-11-21T03:13:01;8.60;;;5.65;;
28796;SDS011;24974;54.444;18.560;2023-11-21T03:15:32;10.18;;;5.72;;
28796;SDS011;24974;54.444;18.560;2023-11-21T03:18:03;9.25;;;6.32;;
28796;SDS011;24974;54.444;18.560;2023-11-21T03:20:35;12.27;;;6.07;;
28796;SDS011;24974;54.444;18.560;2023-11-21T03:23:06;8.20;;;5.55;;
28796;SDS011;24974;54.444;18.560;2023-11-21T03:25:37;10.13;;;6.00;;
28796;SDS011;24974;54.444;18.560;2023-11-21T03:28:08;10.27;;;5.95;;
28796;SDS011;24974;54.444;18.560;2023-11-21T03:30:40;10.00;;;6.13;;
28796;SDS011;24974;54.444;18.560;2023-11-21T03:33:11;10.10;;;6.10;;
28796;SDS011;24974;54.444;18.560;2023-11-21T03:35:42;11.00;;;5.93;;
28796;SDS011;24974;54.444;18.560;2023-11-21T03:38:15;10.52;;;5.70;;
28796;SDS011;24974;54.444;18.560;2023-11-21T03:40:46;14.63;;;6.20;;
28796;SDS011;24974;54.444;18.560;2023-11-21T03:43:17;10.02;;;6.05;;
28796;SDS011;24974;54.444;18.560;2023-11-21T03:45:49;10.73;;;6.25;;
28796;SDS011;24974;54.444;18.560;2023-11-21T03:48:21;10.63;;;6.43;;
28796;SDS011;24974;54.444;18.560;2023-11-21T03:50:52;9.93;;;6.18;;
28796;SDS011;24974;54.444;18.560;2023-11-21T03:53:22;10.13;;;5.63;;
28796;SDS011;24974;54.444;18.560;2023-11-21T03:55:53;9.60;;;5.65;;
28796;SDS011;24974;54.444;18.560;2023-11-21T03:58:24;11.35;;;6.05;;
28796;SDS011;24974;54.444;18.560;2023-11-21T04:00:55;10.90;;;6.95;;
28796;SDS011;24974;54.444;18.560;2023-11-21T04:03:26;10.13;;;5.97;;
28796;SDS011;24974;54.444;18.560;2023-11-21T04:05:57;8.85;;;5.75;;
28796;SDS011;24974;54.444;18.560;2023-11-21T04:08:27;13.35;;;6.30;;
28796;SDS011;24974;54.444;18.560;2023-11-21T04:10:58;10.68;;;5.47;;
28796;SDS011;24974;54.444;18.560;2023-11-21T04:13:29;10.88;;;5.90;;
28796;SDS011;24974;54.444;18.560;2023-11-21T04:16:01;10.50;;;5.80;;
28796;SDS011;24974;54.444;18.560;2023-11-21T04:18:34;10.60;;;5.90;;
28796;SDS011;24974;54.444;18.560;2023-11-21T04:21:06;10.57;;;6.20;;
28796;SDS011;24974;54.444;18.560;2023-11-21T04:23:38;11.88;;;6.93;;
28796;SDS011;24974;54.444;18.560;2023-11-21T04:26:10;13.13;;;6.50;;
28796;SDS011;24974;54.444;18.560;2023-11-21T04:28:41;11.32;;;5.90;;
28796;SDS011;24974;54.444;18.560;2023-11-21T04:31:12;13.75;;;5.78;;
28796;SDS011;24974;54.444;18.560;2023-11-21T04:33:43;11.65;;;6.63;;
28796;SDS011;24974;54.444;18.560;2023-11-21T04:36:15;18.48;;;6.35;;
28796;SDS011;24974;54.444;18.560;2023-11-21T04:38:46;10.15;;;5.72;;
28796;SDS011;24974;54.444;18.560;2023-11-21T04:41:17;9.82;;;5.93;;
28796;SDS011;24974;54.444;18.560;2023-11-21T04:43:48;12.20;;;6.32;;
28796;SDS011;24974;54.444;18.560;2023-11-21T04:46:19;10.50;;;5.80;;
28796;SDS011;24974;54.444;18.560;2023-11-21T04:48:50;11.05;;;5.88;;
28796;SDS011;24974;54.444;18.560;2023-11-21T04:51:21;13.63;;;6.15;;
28796;SDS011;24974;54.444;18.560;2023-11-21T04:53:52;10.88;;;6.10;;
28796;SDS011;24974;54.444;18.560;2023-11-21T04:56:23;11.82;;;6.38;;
28796;SDS011;24974;54.444;18.560;2023-11-21T04:58:55;12.48;;;6.22;;
28796;SDS011;24974;54.444;18.560;2023-11-21T05:01:25;9.77;;;6.05;;
28796;SDS011;24974;54.444;18.560;2023-11-21T05:03:56;11.90;;;6.22;;
28796;SDS011;24974;54.444;18.560;2023-11-21T05:06:27;9.32;;;6.18;;
28796;SDS011;24974;54.444;18.560;2023-11-21T05:08:58;14.95;;;6.55;;
28796;SDS011;24974;54.444;18.560;2023-11-21T05:11:29;10.63;;;6.22;;
28796;SDS011;24974;54.444;18.560;2023-11-21T05:14:00;15.95;;;6.25;;
28796;SDS011;24974;54.444;18.560;2023-11-21T05:16:32;10.05;;;5.80;;
28796;SDS011;24974;54.444;18.560;2023-11-21T05:19:02;10.32;;;5.88;;
28796;SDS011;24974;54.444;18.560;2023-11-21T05:21:34;13.23;;;6.63;;
28796;SDS011;24974;54.444;18.560;2023-11-21T05:24:06;9.55;;;6.00;;
28796;SDS011;24974;54.444;18.560;2023-11-21T05:26:37;11.88;;;5.75;;
28796;SDS011;24974;54.444;18.560;2023-11-21T05:29:09;9.48;;;5.95;;
28796;SDS011;24974;54.444;18.560;2023-11-21T05:31:41;9.90;;;6.45;;
28796;SDS011;24974;54.444;18.560;2023-11-21T05:34:11;11.80;;;6.20;;
28796;SDS011;24974;54.444;18.560;2023-11-21T05:36:43;12.65;;;6.22;;
28796;SDS011;24974;54.444;18.560;2023-11-21T05:39:16;10.10;;;5.80;;
28796;SDS011;24974;54.444;18.560;2023-11-21T05:41:47;10.32;;;6.00;;
28796;SDS011;24974;54.444;18.560;2023-11-21T05:44:18;8.93;;;5.30;;
28796;SDS011;24974;54.444;18.560;2023-11-21T05:46:49;9.32;;;5.22;;
28796;SDS011;24974;54.444;18.560;2023-11-21T05:49:20;15.07;;;5.63;;
28796;SDS011;24974;54.444;18.560;2023-11-21T05:51:55;10.43;;;5.70;;
28796;SDS011;24974;54.444;18.560;2023-11-21T05:54:26;8.85;;;5.10;;
28796;SDS011;24974;54.444;18.560;2023-11-21T05:56:57;8.75;;;4.90;;
28796;SDS011;24974;54.444;18.560;2023-11-21T05:59:28;10.00;;;5.28;;
28796;SDS011;24974;54.444;18.560;2023-11-21T06:01:58;8.38;;;5.22;;
28796;SDS011;24974;54.444;18.560;2023-11-21T06:04:29;8.73;;;4.97;;
28796;SDS011;24974;54.444;18.560;2023-11-21T06:07:00;7.53;;;5.03;;
28796;SDS011;24974;54.444;18.560;2023-11-21T06:09:32;9.25;;;5.13;;
28796;SDS011;24974;54.444;18.560;2023-11-21T06:12:02;6.60;;;5.15;;
28796;SDS011;24974;54.444;18.560;2023-11-21T06:14:34;11.55;;;4.57;;
28796;SDS011;24974;54.444;18.560;2023-11-21T06:17:05;6.43;;;4.45;;
28796;SDS011;24974;54.444;18.560;2023-11-21T06:19:36;6.85;;;4.53;;
28796;SDS011;24974;54.444;18.560;2023-11-21T06:22:07;10.35;;;4.70;;
28796;SDS011;24974;54.444;18.560;2023-11-21T06:24:38;9.50;;;5.60;;
28796;SDS011;24974;54.444;18.560;2023-11-21T06:27:09;9.32;;;5.00;;
28796;SDS011;24974;54.444;18.560;2023-11-21T06:29:40;7.00;;;4.75;;
28796;SDS011;24974;54.444;18.560;2023-11-21T06:32:12;11.43;;;5.28;;
28796;SDS011;24974;54.444;18.560;2023-11-21T06:34:45;11.55;;;5.28;;
28796;SDS011;24974;54.444;18.560;2023-11-21T06:37:16;13.07;;;5.15;;
28796;SDS011;24974;54.444;18.560;2023-11-21T06:39:47;9.57;;;4.93;;
28796;SDS011;24974;54.444;18.560;2023-11-21T06:42:18;11.70;;;5.07;;
28796;SDS011;24974;54.444;18.560;2023-11-21T06:44:52;9.75;;;4.60;;
28796;SDS011;24974;54.444;18.560;2023-11-21T06:47:24;15.98;;;4.88;;
28796;SDS011;24974;54.444;18.560;2023-11-21T06:49:55;5.07;;;3.53;;
28796;SDS011;24974;54.444;18.560;2023-11-21T06:52:26;8.95;;;4.72;;
28796;SDS011;24974;54.444;18.560;2023-11-21T06:54:57;8.77;;;4.55;;
28796;SDS011;24974;54.444;18.560;2023-11-21T06:57:28;8.45;;;4.38;;
28796;SDS011;24974;54.444;18.560;2023-11-21T06:59:59;7.00;;;3.50;;
28796;SDS011;24974;54.444;18.560;2023-11-21T07:02:30;8.68;;;3.83;;
28796;SDS011;24974;54.444;18.560;2023-11-21T07:05:01;7.10;;;4.20;;
28796;SDS011;24974;54.444;18.560;2023-11-21T07:07:32;6.40;;;3.83;;
28796;SDS011;24974;54.444;18.560;2023-11-21T07:10:05;7.65;;;4.30;;
28796;SDS011;24974;54.444;18.560;2023-11-21T07:12:38;5.32;;;3.90;;
28796;SDS011;24974;54.444;18.560;2023-11-21T07:15:10;8.85;;;4.78;;
28796;SDS011;24974;54.444;18.560;2023-11-21T07:17:41;6.45;;;4.45;;
28796;SDS011;24974;54.444;18.560;2023-11-21T07:20:12;7.97;;;4.22;;
28796;SDS011;24974;54.444;18.560;2023-11-21T07:22:44;7.85;;;4.20;;
28796;SDS011;24974;54.444;18.560;2023-11-21T07:25:15;8.18;;;4.47;;
28796;SDS011;24974;54.444;18.560;2023-11-21T07:27:46;10.35;;;4.28;;
28796;SDS011;24974;54.444;18.560;2023-11-21T07:30:17;7.75;;;4.20;;
28796;SDS011;24974;54.444;18.560;2023-11-21T07:32:48;7.70;;;4.38;;
28796;SDS011;24974;54.444;18.560;2023-11-21T07:35:19;10.43;;;4.22;;
28796;SDS011;24974;54.444;18.560;2023-11-21T07:37:50;6.18;;;3.42;;
28796;SDS011;24974;54.444;18.560;2023-11-21T07:40:21;13.45;;;3.83;;
28796;SDS011;24974;54.444;18.560;2023-11-21T07:42:53;11.63;;;4.85;;
28796;SDS011;24974;54.444;18.560;2023-11-21T07:45:23;7.00;;;3.38;;
28796;SDS011;24974;54.444;18.560;2023-11-21T07:47:54;12.73;;;3.92;;
28796;SDS011;24974;54.444;18.560;2023-11-21T07:50:25;8.13;;;3.80;;
28796;SDS011;24974;54.444;18.560;2023-11-21T07:52:57;4.85;;;3.25;;
28796;SDS011;24974;54.444;18.560;2023-11-21T07:55:28;6.07;;;3.50;;
28796;SDS011;24974;54.444;18.560;2023-11-21T07:58:02;5.32;;;3.45;;
28796;SDS011;24974;54.444;18.560;2023-11-21T08:00:34;8.77;;;3.63;;
28796;SDS011;24974;54.444;18.560;2023-11-21T08:03:05;9.13;;;3.33;;
28796;SDS011;24974;54.444;18.560;2023-11-21T08:05:38;8.77;;;3.40;;
28796;SDS011;24974;54.444;18.560;2023-11-21T08:08:09;12.40;;;4.20;;
28796;SDS011;24974;54.444;18.560;2023-11-21T08:10:40;8.80;;;3.50;;
28796;SDS011;24974;54.444;18.560;2023-11-21T08:13:13;5.43;;;3.40;;
28796;SDS011;24974;54.444;18.560;2023-11-21T08:15:47;5.80;;;3.50;;
28796;SDS011;24974;54.444;18.560;2023-11-21T08:18:18;10.70;;;3.80;;
28796;SDS011;24974;54.444;18.560;2023-11-21T08:20:49;5.55;;;2.90;;
28796;SDS011;24974;54.444;18.560;2023-11-21T08:23:20;7.28;;;3.70;;
28796;SDS011;24974;54.444;18.560;2023-11-21T08:25:55;6.38;;;3.50;;
28796;SDS011;24974;54.444;18.560;2023-11-21T08:28:26;8.15;;;3.58;;
28796;SDS011;24974;54.444;18.560;2023-11-21T08:30:57;8.70;;;3.67;;
28796;SDS011;24974;54.444;18.560;2023-11-21T08:33:28;5.57;;;3.50;;
28796;SDS011;24974;54.444;18.560;2023-11-21T08:35:58;6.22;;;3.38;;
28796;SDS011;24974;54.444;18.560;2023-11-21T08:38:31;10.75;;;3.40;;
28796;SDS011;24974;54.444;18.560;2023-11-21T08:41:05;3.60;;;3.10;;
28796;SDS011;24974;54.444;18.560;2023-11-21T08:43:41;9.13;;;3.33;;
28796;SDS011;24974;54.444;18.560;2023-11-21T08:46:12;4.78;;;2.83;;
28796;SDS011;24974;54.444;18.560;2023-11-21T08:48:43;6.65;;;3.30;;
28796;SDS011;24974;54.444;18.560;2023-11-21T08:51:14;7.28;;;2.80;;
28796;SDS011;24974;54.444;18.560;2023-11-21T08:53:46;5.32;;;2.75;;
28796;SDS011;24974;54.444;18.560;2023-11-21T08:56:17;7.45;;;3.38;;
28796;SDS011;24974;54.444;18.560;2023-11-21T08:58:50;6.40;;;3.20;;
28796;SDS011;24974;54.444;18.560;2023-11-21T09:01:21;6.13;;;2.97;;
28796;SDS011;24974;54.444;18.560;2023-11-21T09:03:51;6.53;;;2.97;;
28796;SDS011;24974;54.444;18.560;2023-11-21T09:06:22;5.05;;;2.50;;
28796;SDS011;24974;54.444;18.560;2023-11-21T09:08:53;6.72;;;2.65;;
28796;SDS011;24974;54.444;18.560;2023-11-21T09:11:24;4.38;;;2.67;;
28796;SDS011;24974;54.444;18.560;2023-11-21T09:13:57;4.82;;;2.78;;
28796;SDS011;24974;54.444;18.560;2023-11-21T09:16:28;5.00;;;2.13;;
28796;SDS011;24974;54.444;18.560;2023-11-21T09:19:00;5.20;;;2.25;;
28796;SDS011;24974;54.444;18.560;2023-11-21T09:21:31;5.90;;;2.50;;
28796;SDS011;24974;54.444;18.560;2023-11-21T09:24:01;4.00;;;1.88;;
28796;SDS011;24974;54.444;18.560;2023-11-21T09:26:33;6.70;;;2.30;;
28796;SDS011;24974;54.444;18.560;2023-11-21T09:29:05;6.05;;;2.92;;
28796;SDS011;24974;54.444;18.560;2023-11-21T09:31:35;9.60;;;2.90;;
28796;SDS011;24974;54.444;18.560;2023-11-21T09:34:06;6.60;;;3.17;;
28796;SDS011;24974;54.444;18.560;2023-11-21T09:36:37;5.72;;;2.70;;
28796;SDS011;24974;54.444;18.560;2023-11-21T09:39:09;8.77;;;2.50;;
28796;SDS011;24974;54.444;18.560;2023-11-21T09:41:50;6.47;;;2.50;;
28796;SDS011;24974;54.444;18.560;2023-11-21T09:47:07;4.82;;;2.85;;
28796;SDS011;24974;54.444;18.560;2023-11-21T09:49:46;5.15;;;3.53;;
28796;SDS011;24974;54.444;18.560;2023-11-21T09:52:24;5.13;;;2.72;;
28796;SDS011;24974;54.444;18.560;2023-11-21T09:54:56;6.70;;;3.30;;
28796;SDS011;24974;54.444;18.560;2023-11-21T09:57:28;16.95;;;3.22;;
28796;SDS011;24974;54.444;18.560;2023-11-21T10:00:00;5.68;;;2.70;;
28796;SDS011;24974;54.444;18.560;2023-11-21T10:02:35;14.05;;;3.65;;
28796;SDS011;24974;54.444;18.560;2023-11-21T10:05:08;5.38;;;2.75;;
28796;SDS011;24974;54.444;18.560;2023-11-21T10:07:45;5.38;;;3.33;;
28796;SDS011;24974;54.444;18.560;2023-11-21T10:10:20;5.68;;;2.97;;
28796;SDS011;24974;54.444;18.560;2023-11-21T10:12:54;8.70;;;3.40;;
28796;SDS011;24974;54.444;18.560;2023-11-21T10:15:27;8.18;;;3.85;;
28796;SDS011;24974;54.444;18.560;2023-11-21T10:17:58;6.00;;;2.92;;
28796;SDS011;24974;54.444;18.560;2023-11-21T10:20:30;5.03;;;3.45;;
28796;SDS011;24974;54.444;18.560;2023-11-21T10:23:04;6.07;;;2.85;;
28796;SDS011;24974;54.444;18.560;2023-11-21T10:25:35;5.30;;;2.63;;
28796;SDS011;24974;54.444;18.560;2023-11-21T10:28:07;6.82;;;3.13;;
28796;SDS011;24974;54.444;18.560;2023-11-21T10:30:40;4.22;;;2.72;;
28796;SDS011;24974;54.444;18.560;2023-11-21T10:33:11;5.95;;;3.15;;
28796;SDS011;24974;54.444;18.560;2023-11-21T10:35:43;5.45;;;3.00;;
28796;SDS011;24974;54.444;18.560;2023-11-21T10:38:21;7.28;;;3.03;;
28796;SDS011;24974;54.444;18.560;2023-11-21T10:40:54;9.18;;;3.90;;
28796;SDS011;24974;54.444;18.560;2023-11-21T10:43:25;6.47;;;3.10;;
28796;SDS011;24974;54.444;18.560;2023-11-21T10:45:57;5.10;;;2.88;;
28796;SDS011;24974;54.444;18.560;2023-11-21T10:48:32;7.13;;;3.40;;
28796;SDS011;24974;54.444;18.560;2023-11-21T10:51:08;10.30;;;4.28;;
28796;SDS011;24974;54.444;18.560;2023-11-21T10:53:40;6.47;;;2.80;;
28796;SDS011;24974;54.444;18.560;2023-11-21T10:56:13;6.43;;;3.00;;
28796;SDS011;24974;54.444;18.560;2023-11-21T10:58:51;5.50;;;3.05;;
28796;SDS011;24974;54.444;18.560;2023-11-21T11:01:23;23.33;;;4.55;;
28796;SDS011;24974;54.444;18.560;2023-11-21T11:06:32;6.90;;;3.13;;
28796;SDS011;24974;54.444;18.560;2023-11-21T11:09:03;6.35;;;4.10;;
28796;SDS011;24974;54.444;18.560;2023-11-21T11:11:35;6.60;;;3.35;;
28796;SDS011;24974;54.444;18.560;2023-11-21T11:14:12;5.80;;;3.10;;
28796;SDS011;24974;54.444;18.560;2023-11-21T11:16:44;5.95;;;3.47;;
28796;SDS011;24974;54.444;18.560;2023-11-21T11:19:15;6.20;;;3.08;;
28796;SDS011;24974;54.444;18.560;2023-11-21T11:21:53;4.30;;;3.17;;
28796;SDS011;24974;54.444;18.560;2023-11-21T11:36:29;8.60;;;2.90;;
28796;SDS011;24974;54.444;18.560;2023-11-21T11:39:26;4.45;;;2.72;;
28796;SDS011;24974;54.444;18.560;2023-11-21T11:42:02;8.10;;;2.97;;
28796;SDS011;24974;54.444;18.560;2023-11-21T11:52:42;4.57;;;2.83;;
28796;SDS011;24974;54.444;18.560;2023-11-21T11:55:15;6.80;;;3.53;;
28796;SDS011;24974;54.444;18.560;2023-11-21T11:57:51;6.10;;;3.47;;
28796;SDS011;24974;54.444;18.560;2023-11-21T12:02:58;6.18;;;3.00;;
28796;SDS011;24974;54.444;18.560;2023-11-21T12:05:35;5.57;;;3.38;;
28796;SDS011;24974;54.444;18.560;2023-11-21T12:08:09;5.72;;;3.17;;
28796;SDS011;24974;54.444;18.560;2023-11-21T12:10:41;6.28;;;3.15;;
28796;SDS011;24974;54.444;18.560;2023-11-21T12:13:13;5.40;;;2.65;;
28796;SDS011;24974;54.444;18.560;2023-11-21T12:15:44;6.53;;;2.90;;
28796;SDS011;24974;54.444;18.560;2023-11-21T12:18:16;5.57;;;2.75;;
28796;SDS011;24974;54.444;18.560;2023-11-21T12:20:47;6.20;;;2.83;;
28796;SDS011;24974;54.444;18.560;2023-11-21T12:23:20;8.25;;;3.78;;
28796;SDS011;24974;54.444;18.560;2023-11-21T12:25:51;6.60;;;3.03;;
28796;SDS011;24974;54.444;18.560;2023-11-21T12:28:22;4.30;;;2.80;;
28796;SDS011;24974;54.444;18.560;2023-11-21T12:30:53;5.20;;;2.90;;
28796;SDS011;24974;54.444;18.560;2023-11-21T12:33:24;7.65;;;2.92;;
28796;SDS011;24974;54.444;18.560;2023-11-21T12:35:56;8.90;;;2.92;;
28796;SDS011;24974;54.444;18.560;2023-11-21T12:38:34;3.97;;;2.65;;
28796;SDS011;24974;54.444;18.560;2023-11-21T12:41:09;6.25;;;3.08;;
28796;SDS011;24974;54.444;18.560;2023-11-21T12:43:40;5.15;;;2.58;;
28796;SDS011;24974;54.444;18.560;2023-11-21T12:46:11;4.85;;;2.53;;
28796;SDS011;24974;54.444;18.560;2023-11-21T12:48:44;5.15;;;3.03;;
28796;SDS011;24974;54.444;18.560;2023-11-21T12:51:18;5.80;;;3.17;;
28796;SDS011;24974;54.444;18.560;2023-11-21T12:53:49;6.60;;;3.65;;
28796;SDS011;24974;54.444;18.560;2023-11-21T12:56:21;6.30;;;3.35;;
28796;SDS011;24974;54.444;18.560;2023-11-21T12:58:53;7.90;;;3.95;;
28796;SDS011;24974;54.444;18.560;2023-11-21T13:01:27;8.50;;;3.40;;
28796;SDS011;24974;54.444;18.560;2023-11-21T13:03:59;7.22;;;3.10;;
28796;SDS011;24974;54.444;18.560;2023-11-21T13:06:32;6.10;;;3.63;;
28796;SDS011;24974;54.444;18.560;2023-11-21T13:09:09;5.55;;;3.55;;
28796;SDS011;24974;54.444;18.560;2023-11-21T13:11:48;7.18;;;4.20;;
28796;SDS011;24974;54.444;18.560;2023-11-21T13:14:18;8.25;;;4.43;;
28796;SDS011;24974;54.444;18.560;2023-11-21T13:16:49;10.20;;;3.88;;
28796;SDS011;24974;54.444;18.560;2023-11-21T13:19:20;7.20;;;3.92;;
28796;SDS011;24974;54.444;18.560;2023-11-21T13:21:52;9.65;;;4.30;;
28796;SDS011;24974;54.444;18.560;2023-11-21T13:24:23;7.47;;;4.22;;
28796;SDS011;24974;54.444;18.560;2023-11-21T13:26:53;6.65;;;3.67;;
28796;SDS011;24974;54.444;18.560;2023-11-21T13:29:24;7.55;;;3.22;;
28796;SDS011;24974;54.444;18.560;2023-11-21T13:31:56;7.88;;;4.18;;
28796;SDS011;24974;54.444;18.560;2023-11-21T13:34:27;7.72;;;4.13;;
28796;SDS011;24974;54.444;18.560;2023-11-21T13:36:58;7.82;;;4.35;;
28796;SDS011;24974;54.444;18.560;2023-11-21T13:39:29;5.07;;;3.45;;
28796;SDS011;24974;54.444;18.560;2023-11-21T13:42:02;5.43;;;3.30;;
28796;SDS011;24974;54.444;18.560;2023-11-21T13:44:33;9.07;;;3.90;;
28796;SDS011;24974;54.444;18.560;2023-11-21T13:47:08;6.40;;;3.13;;
28796;SDS011;24974;54.444;18.560;2023-11-21T13:49:39;6.88;;;3.10;;
28796;SDS011;24974;54.444;18.560;2023-11-21T13:52:11;4.38;;;2.17;;
28796;SDS011;24974;54.444;18.560;2023-11-21T13:54:46;10.02;;;3.42;;
28796;SDS011;24974;54.444;18.560;2023-11-21T13:57:18;4.68;;;2.47;;
28796;SDS011;24974;54.444;18.560;2023-11-21T13:59:50;7.63;;;3.22;;
28796;SDS011;24974;54.444;18.560;2023-11-21T14:02:21;8.13;;;3.05;;
28796;SDS011;24974;54.444;18.560;2023-11-21T14:05:02;4.38;;;2.63;;
28796;SDS011;24974;54.444;18.560;2023-11-21T14:07:39;2.47;;;1.90;;
28796;SDS011;24974;54.444;18.560;2023-11-21T14:10:17;4.00;;;2.03;;
28796;SDS011;24974;54.444;18.560;2023-11-21T14:12:52;6.35;;;2.40;;
28796;SDS011;24974;54.444;18.560;2023-11-21T14:15:23;3.08;;;1.88;;
28796;SDS011;24974;54.444;18.560;2023-11-21T14:17:54;3.97;;;1.77;;
28796;SDS011;24974;54.444;18.560;2023-11-21T14:20:25;3.10;;;2.10;;
28796;SDS011;24974;54.444;18.560;2023-11-21T14:22:56;6.07;;;2.22;;
28796;SDS011;24974;54.444;18.560;2023-11-21T14:25:27;6.68;;;2.20;;
28796;SDS011;24974;54.444;18.560;2023-11-21T14:27:58;5.07;;;2.25;;
28796;SDS011;24974;54.444;18.560;2023-11-21T14:30:29;5.07;;;2.45;;
28796;SDS011;24974;54.444;18.560;2023-11-21T14:33:03;4.00;;;2.35;;
28796;SDS011;24974;54.444;18.560;2023-11-21T14:35:34;4.07;;;2.22;;
28796;SDS011;24974;54.444;18.560;2023-11-21T14:38:04;4.22;;;2.40;;
28796;SDS011;24974;54.444;18.560;2023-11-21T14:40:36;9.20;;;3.08;;
28796;SDS011;24974;54.444;18.560;2023-11-21T14:43:07;6.10;;;2.80;;
28796;SDS011;24974;54.444;18.560;2023-11-21T14:45:38;5.60;;;2.90;;
28796;SDS011;24974;54.444;18.560;2023-11-21T14:48:09;6.65;;;3.00;;
28796;SDS011;24974;54.444;18.560;2023-11-21T14:51:02;5.13;;;2.65;;
28796;SDS011;24974;54.444;18.560;2023-11-21T14:53:33;5.15;;;2.70;;
28796;SDS011;24974;54.444;18.560;2023-11-21T14:56:16;4.45;;;2.70;;
28796;SDS011;24974;54.444;18.560;2023-11-21T14:58:56;7.70;;;3.17;;
28796;SDS011;24974;54.444;18.560;2023-11-21T15:01:30;7.47;;;3.40;;
28796;SDS011;24974;54.444;18.560;2023-11-21T15:04:31;4.32;;;2.47;;
28796;SDS011;24974;54.444;18.560;2023-11-21T15:07:09;10.63;;;3.70;;
28796;SDS011;24974;54.444;18.560;2023-11-21T15:09:43;5.95;;;2.75;;
28796;SDS011;24974;54.444;18.560;2023-11-21T15:12:15;7.43;;;3.15;;
28796;SDS011;24974;54.444;18.560;2023-11-21T15:14:47;6.50;;;2.75;;
28796;SDS011;24974;54.444;18.560;2023-11-21T15:17:22;7.97;;;3.50;;
28796;SDS011;24974;54.444;18.560;2023-11-21T15:19:56;6.28;;;3.55;;
28796;SDS011;24974;54.444;18.560;2023-11-21T15:22:27;7.53;;;3.20;;
28796;SDS011;24974;54.444;18.560;2023-11-21T15:24:59;5.57;;;3.13;;
28796;SDS011;24974;54.444;18.560;2023-11-21T15:27:34;5.70;;;3.78;;